Latest Weather Observations for Campania

IDT60801

Issued at 11:01 am EST Tuesday 26 May 2020 (issued every 10 minutes, with the page automatically refreshed every 10 minutes)

About weather observations | Map of weather stations | Latest weather observations for TAS | Other Formats
Station Details ID: 094212 Name: CAMPANIA (KINCORA) Lat: -42.69 Lon: 147.43 Height: 45.0 m
Data from the previous 72 hours. | See also: Recent months at Campania
Date/Time
EST
Temp
°C
App
Temp
°C
Dew
Point
°C
Rel
Hum
%
Delta-T
°C
Wind Press
QNH
hPa
Press
MSL
hPa
Rain since
9am
mm
Dir  Spd
km/h
Gust
km/h
Spd
kts
Gust
kts
26/11:00am 9.2 5.8 4.2 71 2.2 N 11 19 6 10 - - 0.0
26/10:30am 7.8 5.5 4.7 81 1.4 NNW 6 9 3 5 - - 0.0
26/10:00am 7.1 5.8 4.2 82 1.3 CALM 0 0 0 0 - - 0.0
26/09:30am 4.1 0.8 2.5 89 0.6 N 9 13 5 7 - - 0.0
26/09:00am 2.1 -2.2 1.1 93 0.4 N 13 19 7 10 - - 0.2
26/08:30am 1.0 -3.4 0.3 95 0.3 N 13 17 7 9 - - 0.0
26/08:00am -0.2 -4.4 -0.9 95 0.2 N 11 13 6 7 - - 0.0
26/07:30am -0.8 -5.4 -1.4 96 0.2 NNW 13 15 7 8 - - 0.0
26/07:00am -0.9 -4.8 -1.5 96 0.2 NNW 9 11 5 6 - - 0.0
26/06:30am -0.2 -4.4 -0.6 97 0.1 N 11 13 6 7 - - 0.0
26/06:00am -0.6 -4.1 -1.2 96 0.2 N 7 11 4 6 - - 0.0
26/05:30am -0.1 -3.9 -0.7 96 0.2 N 9 11 5 6 - - 0.0
26/05:00am -0.7 -4.2 -1.3 96 0.2 N 7 11 4 6 - - 0.0
26/04:30am 0.1 -3.7 -0.5 96 0.2 N 9 13 5 7 - - 0.0
26/04:00am 0.7 -3.4 0.1 96 0.2 N 11 13 6 7 - - 0.0
26/03:30am 0.6 -3.5 0.0 96 0.2 N 11 13 6 7 - - 0.0
26/03:00am 0.7 -3.3 0.3 97 0.1 N 11 13 6 7 - - 0.0
26/02:30am -0.2 -4.0 -0.6 97 0.1 N 9 11 5 6 - - 0.0
26/02:00am -0.5 -3.8 -0.9 97 0.1 NNE 6 9 3 5 - - 0.0
26/01:30am -0.2 -3.4 -0.6 97 0.1 N 6 9 3 5 - - 0.0
26/01:00am 0.4 -3.3 0.0 97 0.1 NNE 9 11 5 6 - - 0.0
26/12:30am -0.4 -4.2 -0.8 97 0.1 N 9 13 5 7 - - 0.0
26/12:00am -0.4 -4.2 -0.8 97 0.1 N 9 11 5 6 - - 0.0
 
Date/Time
EST
Temp
°C
App
Temp
°C
Dew
Point
°C
Rel
Hum
%
Delta-T
°C
Wind Press
QNH
hPa
Press
MSL
hPa
Rain since
9am
mm
Dir  Spd
km/h
Gust
km/h
Spd
kts
Gust
kts
25/11:30pm -0.1 -3.3 -0.7 96 0.2 N 6 9 3 5 - - 0.0
25/11:00pm 0.7 -3.0 0.1 96 0.2 NNE 9 11 5 6 - - 0.0
25/10:30pm 1.0 -2.6 0.4 96 0.2 N 9 13 5 7 - - 0.0
25/10:00pm 1.6 -1.0 1.0 96 0.2 NNE 4 9 2 5 - - 0.0
25/09:30pm 0.8 -2.9 0.2 96 0.2 N 9 11 5 6 - - 0.0
25/09:00pm 1.1 -2.2 0.4 95 0.3 N 7 13 4 7 - - 0.0
25/08:30pm 1.9 -1.6 1.2 95 0.3 N 9 11 5 6 - - 0.0
25/08:00pm 2.7 -0.7 2.0 95 0.3 N 9 13 5 7 - - 0.0
25/07:30pm 2.6 -0.8 1.9 95 0.3 N 9 13 5 7 - - 0.0
25/07:00pm 2.0 -1.0 1.1 94 0.3 N 6 7 3 4 - - 0.0
25/06:30pm 2.6 0.1 1.6 93 0.4 N 4 7 2 4 - - 0.0
25/06:00pm 3.3 0.9 2.1 92 0.5 N 4 9 2 5 - - 0.0
25/05:30pm 4.0 1.3 2.4 89 0.6 N 6 7 3 4 - - 0.0
25/05:00pm 5.8 3.6 3.5 85 1.0 N 4 6 2 3 - - 0.0
25/04:30pm 7.6 4.5 3.6 76 1.7 SSW 9 11 5 6 - - 0.0
25/04:00pm 9.7 6.7 4.3 69 2.4 SSW 9 11 5 6 - - 0.0
25/03:30pm 10.3 7.3 4.2 66 2.7 SW 9 11 5 6 - - 0.0
25/03:00pm 10.9 8.4 3.7 61 3.2 NNE 6 9 3 5 - - 0.0
25/02:30pm 10.8 8.3 3.6 61 3.2 N 6 7 3 4 - - 0.0
25/02:00pm 10.5 7.8 3.8 63 3.0 NE 7 13 4 7 - - 0.0
25/01:30pm 10.3 6.9 4.2 66 2.7 NNE 11 17 6 9 - - 0.0
25/01:00pm 10.0 6.9 3.7 65 2.8 NNW 9 17 5 9 - - 0.0
25/12:30pm 9.2 6.5 3.6 68 2.4 N 7 11 4 6 - - 0.0
25/12:00pm 9.3 6.8 3.9 69 2.4 NE 6 9 3 5 - - 0.0
25/11:30am 8.7 5.6 3.5 70 2.2 NNW 9 11 5 6 - - 0.0
25/11:00am 8.7 5.6 3.5 70 2.2 NNW 9 13 5 7 - - 0.0
25/10:30am 8.5 5.4 3.8 72 2.0 NNW 9 11 5 6 - - 0.0
25/10:00am 8.2 5.1 3.5 72 2.0 WNW 9 15 5 8 - - 0.0
25/09:30am 7.9 4.0 3.6 74 1.8 W 13 19 7 10 - - 0.0
25/09:00am 7.7 3.8 3.4 74 1.8 W 13 19 7 10 - - 0.4
25/08:30am 7.7 3.8 3.6 75 1.8 W 13 17 7 9 - - 0.4
25/08:00am 7.5 4.4 3.7 77 1.6 W 9 15 5 8 - - 0.4
25/07:30am 7.2 5.6 4.3 82 1.3 NE 2 6 1 3 - - 0.4
25/07:00am 7.2 5.2 4.5 83 1.2 ESE 4 6 2 3 - - 0.4
25/06:30am 7.3 5.3 4.6 83 1.2 N 4 9 2 5 - - 0.4
25/06:00am 7.2 4.6 4.3 82 1.3 NE 7 9 4 5 - - 0.4
25/05:30am 7.6 5.1 4.0 78 1.6 SW 6 7 3 4 - - 0.4
25/05:00am 7.5 5.1 4.1 79 1.5 NNW 6 11 3 6 - - 0.4
25/04:30am 7.3 5.0 4.8 84 1.1 NNE 6 7 3 4 - - 0.4
25/04:00am 7.4 4.9 4.7 83 1.2 ENE 7 9 4 5 - - 0.4
25/03:30am 7.9 4.9 4.1 77 1.7 W 9 13 5 7 - - 0.4
25/03:00am 7.8 4.4 4.0 77 1.6 W 11 15 6 8 - - 0.4
25/02:30am 7.9 3.4 4.3 78 1.6 WSW 17 22 9 12 - - 0.4
25/02:00am 7.7 4.8 4.5 80 1.4 SW 9 11 5 6 - - 0.4
25/01:30am 7.6 4.7 4.7 82 1.3 SW 9 11 5 6 - - 0.4
25/01:00am 8.1 4.8 4.3 77 1.7 SW 11 15 6 8 - - 0.4
25/12:30am 8.1 4.4 4.5 78 1.6 WSW 13 17 7 9 - - 0.4
25/12:00am 8.1 4.0 4.5 78 1.6 SW 15 19 8 10 - - 0.4
 
Date/Time
EST
Temp
°C
App
Temp
°C
Dew
Point
°C
Rel
Hum
%
Delta-T
°C
Wind Press
QNH
hPa
Press
MSL
hPa
Rain since
9am
mm
Dir  Spd
km/h
Gust
km/h
Spd
kts
Gust
kts
24/11:30pm 8.2 4.1 4.4 77 1.7 SW 15 19 8 10 - - 0.4
24/11:00pm 8.3 5.4 4.7 78 1.6 S 9 13 5 7 - - 0.4
24/10:30pm 8.1 5.8 4.7 79 1.5 S 6 9 3 5 - - 0.4
24/10:00pm 8.1 5.6 4.7 79 1.5 SSW 7 9 4 5 - - 0.4
24/09:30pm 8.2 5.7 4.8 79 1.5 S 7 13 4 7 - - 0.4
24/09:00pm 8.4 5.1 4.6 77 1.7 SSW 11 13 6 7 - - 0.4
24/08:30pm 8.3 5.0 4.7 78 1.6 SSW 11 13 6 7 - - 0.4
24/08:00pm 8.4 5.4 4.2 75 1.8 SSW 9 13 5 7 - - 0.4
24/07:30pm 8.5 5.1 4.1 74 1.9 SSE 11 15 6 8 - - 0.4
24/07:00pm 8.4 5.5 4.8 78 1.6 S 9 11 5 6 - - 0.4
24/06:30pm 8.3 5.1 4.9 79 1.5 SE 11 15 6 8 - - 0.4
24/06:00pm 8.4 5.1 4.6 77 1.7 SSE 11 13 6 7 - - 0.4
24/05:30pm 8.5 4.0 4.3 75 1.8 SSE 17 22 9 12 - - 0.4
24/05:00pm 8.6 4.2 4.6 76 1.8 SSE 17 24 9 13 - - 0.4
24/04:30pm 8.8 5.7 5.7 81 1.4 SSE 11 17 6 9 - - 0.4
24/04:00pm 9.1 5.0 6.0 81 1.4 SSE 17 22 9 12 - - 0.4
24/03:30pm 9.4 4.9 6.3 81 1.4 SSE 19 26 10 14 - - 0.4
24/03:00pm 9.7 5.3 6.6 81 1.4 SSE 19 28 10 15 - - 0.4
24/02:30pm 9.6 5.3 7.2 85 1.1 S 19 24 10 13 - - 0.4
24/02:00pm 9.7 5.9 7.6 87 1.0 S 17 24 9 13 - - 0.4
24/01:30pm 9.4 6.1 8.2 92 0.6 S 15 20 8 11 - - 0.4
24/01:00pm 9.4 5.4 8.3 93 0.5 S 19 24 10 13 - - 0.4
24/12:30pm 9.2 4.6 8.1 93 0.5 SSE 22 32 12 17 - - 0.2
24/12:00pm 9.9 5.5 7.5 85 1.1 SSE 20 28 11 15 - - 0.0
24/11:30am 10.6 6.8 7.5 81 1.5 SSE 17 24 9 13 - - 0.0
24/11:00am 10.4 6.0 7.6 83 1.3 SSE 20 28 11 15 - - 0.0
24/10:30am 9.4 5.8 8.3 93 0.5 SSE 17 22 9 12 - - 0.0
24/10:00am 9.4 5.8 8.2 92 0.6 S 17 22 9 12 - - 0.0
24/09:30am 9.1 5.7 7.5 90 0.8 SSW 15 22 8 12 - - 0.0
24/09:00am 9.1 4.5 6.7 85 1.1 S 20 28 11 15 - - 0.0
24/08:30am 9.0 6.8 6.4 84 1.2 SSE 7 11 4 6 - - 0.0
24/08:00am 8.2 6.0 6.2 87 0.9 SSE 7 11 4 6 - - 0.0
24/07:30am 8.5 4.8 6.3 86 1.0 S 15 19 8 10 - - 0.0
24/07:00am 8.4 4.8 6.7 89 0.8 S 15 20 8 11 - - 0.0
24/06:30am 7.9 4.9 6.0 88 0.9 S 11 17 6 9 - - 0.0
24/06:00am 7.0 4.9 5.6 91 0.6 ESE 6 9 3 5 - - 0.0
24/05:30am 7.6 4.5 5.7 88 0.9 SSE 11 15 6 8 - - 0.0
24/05:00am 7.8 4.3 5.6 86 1.0 SSE 13 17 7 9 - - 0.0
24/04:30am 8.0 4.5 5.3 83 1.2 SSE 13 20 7 11 - - 0.0
24/04:00am 8.5 4.1 4.9 78 1.6 S 17 24 9 13 - - 0.0
24/03:30am 8.6 4.9 4.2 74 1.9 S 13 26 7 14 - - 0.0
24/03:00am 9.2 5.5 4.2 71 2.2 S 13 22 7 12 - - 0.0
24/02:30am 9.2 6.3 4.6 73 2.0 SSE 9 15 5 8 - - 0.0
24/02:00am 9.5 5.1 4.7 72 2.1 S 17 24 9 13 - - 0.0
24/01:30am 10.0 5.5 4.0 66 2.7 S 17 26 9 14 - - 0.0
24/01:00am 10.2 5.0 3.5 63 2.9 SSW 20 26 11 14 - - 0.0
24/12:30am 10.0 6.4 2.8 61 3.1 WSW 11 26 6 14 - - 0.0
24/12:00am 10.3 4.2 2.7 59 3.3 SSW 24 35 13 19 - - 0.0
 
Date/Time
EST
Temp
°C
App
Temp
°C
Dew
Point
°C
Rel
Hum
%
Delta-T
°C
Wind Press
QNH
hPa
Press
MSL
hPa
Rain since
9am
mm
Dir  Spd
km/h
Gust
km/h
Spd
kts
Gust
kts
23/11:30pm 9.8 4.9 4.0 67 2.6 SSW 19 28 10 15 - - 0.0
23/11:00pm 9.5 4.9 3.7 67 2.5 SSW 17 24 9 13 - - 0.0
23/10:30pm 9.2 5.3 5.4 77 1.7 S 15 19 8 10 - - 0.0
23/10:00pm 8.5 5.9 6.0 84 1.1 S 9 13 5 7 - - 0.0
23/09:30pm 7.7 5.6 5.7 87 0.9 SSE 6 9 3 5 - - 0.0
23/09:00pm 8.4 5.8 6.0 85 1.1 S 9 11 5 6 - - 0.0
23/08:30pm 8.8 5.8 6.2 84 1.2 S 11 15 6 8 - - 0.0
23/08:00pm 8.0 5.3 5.5 84 1.1 S 9 11 5 6 - - 0.0
23/07:30pm 9.2 5.5 6.3 82 1.3 SSW 15 19 8 10 - - 0.0
23/07:00pm 9.4 6.6 6.8 84 1.2 S 11 19 6 10 - - 0.0
23/06:30pm 9.6 7.6 7.2 85 1.1 SSE 7 11 4 6 - - 0.0
23/06:00pm 10.0 6.9 7.4 84 1.2 SSE 13 17 7 9 - - 0.0
23/05:30pm 10.4 7.8 7.6 83 1.3 SSE 11 17 6 9 - - 0.0
23/05:00pm 10.4 6.6 7.6 83 1.3 SSE 17 22 9 12 - - 0.0
23/04:30pm 10.7 6.7 8.3 85 1.2 S 19 26 10 14 - - 0.0
23/04:00pm 11.2 6.3 8.4 83 1.4 SSE 24 32 13 17 - - 0.0
23/03:30pm 13.7 10.9 7.0 64 3.3 SW 11 15 6 8 - - 0.0
23/03:00pm 14.0 11.3 7.5 65 3.2 SW 11 15 6 8 - - 0.0
23/02:30pm 13.3 10.6 7.3 67 2.9 WSW 11 15 6 8 - - 0.0
23/02:00pm 13.5 11.5 7.3 66 3.0 S 7 11 4 6 - - 0.0
23/01:30pm 13.5 12.2 7.5 67 2.9 N 4 11 2 6 - - 0.0
23/01:00pm 12.9 11.0 7.4 69 2.7 ENE 7 9 4 5 - - 0.0
23/12:30pm 13.4 12.1 7.8 69 2.8 NE 4 7 2 4 - - 0.0
23/12:00pm 11.7 9.5 6.4 70 2.5 NE 7 9 4 5 - - 0.0
23/11:30am 10.5 7.6 6.5 76 1.9 NNW 11 13 6 7 - - 0.0

Other formats

Comma delimited format used in spreadsheet applications
http://www.bom.gov.au/fwo/IDT60801/IDT60801.95972.axf

JavaScript Object Notation format (JSON) in row-major order
http://www.bom.gov.au/fwo/IDT60801/IDT60801.95972.json

Data quality

Most of these data are generated automatically and are frequently updated. Quality checks on data are not normally performed. It is possible for incorrect values to appear. Refer to information at About Latest Weather Observations and please check the disclaimer before using these data.